Time;durP1;ratioP1;P1;durP2;ratioP2;P2;SDS_P1;SDS_P2;PMS_P1;PMS_P2;Temp;Humidity;BMP_temperature;BMP_pressure;BME280_temperature;BME280_humidity;BME280_pressure;Samples;Min_cycle;Max_cycle;Signal;HPM_P1;HPM_P2
2023/09/11 00:01:02;;;;;;;13.38;10.43;;;22.60;99.90;;;;;;4997399;28;38118;-76
2023/09/11 00:03:28;;;;;;;13.98;11.07;;;22.50;99.90;;;;;;4996544;28;37286;-76
2023/09/11 00:06:04;;;;;;;15.90;10.52;;;22.50;99.90;;;;;;5000058;28;36611;-77
2023/09/11 00:08:30;;;;;;;11.10;10.10;;;22.50;99.90;;;;;;4997237;28;47585;-79
2023/09/11 00:10:57;;;;;;;16.80;11.10;;;22.40;99.90;;;;;;5003635;28;37732;-78
2023/09/11 00:13:23;;;;;;;12.05;9.55;;;22.40;99.90;;;;;;5007298;28;38159;-79
2023/09/11 00:15:49;;;;;;;10.68;9.25;;;22.30;99.90;;;;;;5007141;28;38175;-78
2023/09/11 00:18:16;;;;;;;12.98;10.07;;;22.30;99.90;;;;;;5007215;28;36053;-78
2023/09/11 00:20:42;;;;;;;10.55;9.45;;;22.20;99.90;;;;;;4994438;28;38427;-78
2023/09/11 00:23:08;;;;;;;12.88;9.25;;;22.20;99.90;;;;;;5004898;28;37490;-78
2023/09/11 00:25:35;;;;;;;12.63;10.35;;;22.20;99.90;;;;;;5007624;28;37002;-78
2023/09/11 00:28:01;;;;;;;11.73;10.57;;;22.10;99.90;;;;;;5006053;28;37540;-78
2023/09/11 00:30:27;;;;;;;11.20;10.02;;;22.10;99.90;;;;;;5001477;28;38789;-78
2023/09/11 00:32:54;;;;;;;11.75;10.32;;;22.00;99.90;;;;;;4998161;28;37194;-78
2023/09/11 00:35:20;;;;;;;12.85;11.27;;;22.00;99.90;;;;;;4998187;28;36612;-79
2023/09/11 00:37:46;;;;;;;14.90;11.18;;;21.90;99.90;;;;;;4998945;28;36324;-78
2023/09/11 00:40:12;;;;;;;13.02;11.05;;;21.90;99.90;;;;;;4996607;28;38381;-79
2023/09/11 00:42:38;;;;;;;13.10;11.05;;;21.90;99.90;;;;;;4998437;28;37259;-78
2023/09/11 00:45:05;;;;;;;11.63;10.20;;;21.80;99.90;;;;;;4996744;28;37557;-78
2023/09/11 00:47:31;;;;;;;10.60;9.60;;;21.80;99.90;;;;;;4997252;28;37711;-78
2023/09/11 00:49:59;;;;;;;13.20;10.68;;;21.80;99.90;;;;;;4997204;28;37584;-78
2023/09/11 00:52:26;;;;;;;14.02;10.90;;;21.80;99.90;;;;;;4995715;28;37678;-78
2023/09/11 00:54:54;;;;;;;12.63;11.05;;;21.70;99.90;;;;;;4995210;28;38282;-78
2023/09/11 00:57:21;;;;;;;14.60;10.82;;;21.70;99.90;;;;;;4998323;28;37248;-79
2023/09/11 00:59:51;;;;;;;11.95;10.68;;;21.70;99.90;;;;;;4998788;28;37512;-79
2023/09/11 01:02:18;;;;;;;11.75;10.43;;;21.70;99.90;;;;;;5369748;22;37607;-75
2023/09/11 01:04:45;;;;;;;12.05;10.93;;;21.60;99.90;;;;;;5000932;28;37501;-76
2023/09/11 01:07:12;;;;;;;12.25;10.95;;;21.60;99.90;;;;;;5002184;28;38870;-77
2023/09/11 01:09:40;;;;;;;11.95;10.50;;;21.60;99.90;;;;;;5004016;28;39956;-77
2023/09/11 01:12:07;;;;;;;12.38;11.00;;;21.50;99.90;;;;;;5002325;28;37193;-77
2023/09/11 01:14:35;;;;;;;12.05;10.50;;;21.50;99.90;;;;;;5007080;28;37765;-77
2023/09/11 01:17:35;;;;;;;12.48;11.25;;;21.40;99.90;;;;;;5012927;28;37870;-77
2023/09/11 01:20:29;;;;;;;12.70;10.90;;;21.40;99.90;;;;;;4993649;28;47482;-78
2023/09/11 01:23:16;;;;;;;14.75;10.90;;;21.30;99.90;;;;;;5001898;28;46979;-77
2023/09/11 01:26:00;;;;;;;12.23;10.98;;;21.30;99.90;;;;;;5003856;28;48968;-77
2023/09/11 01:28:57;;;;;;;13.55;12.10;;;21.30;99.90;;;;;;5000649;28;37354;-76
2023/09/11 01:31:26;;;;;;;14.13;11.57;;;21.20;99.90;;;;;;5017835;28;37912;-77
2023/09/11 01:33:53;;;;;;;14.23;11.68;;;21.20;99.90;;;;;;5002104;28;39444;-78
2023/09/11 01:36:19;;;;;;;13.40;12.02;;;21.20;99.90;;;;;;4999571;28;36817;-77
2023/09/11 01:38:45;;;;;;;13.13;11.52;;;21.10;99.90;;;;;;5002190;28;36092;-78
2023/09/11 01:41:14;;;;;;;13.88;12.45;;;21.10;99.90;;;;;;4999052;28;38090;-76
2023/09/11 01:43:44;;;;;;;14.02;12.63;;;21.10;99.90;;;;;;5001636;28;38229;-76
2023/09/11 01:46:12;;;;;;;13.50;12.27;;;21.00;99.90;;;;;;4995275;28;37404;-77
2023/09/11 01:48:41;;;;;;;15.38;11.52;;;21.00;99.90;;;;;;5001370;28;36462;-75
2023/09/11 01:51:07;;;;;;;17.60;12.88;;;21.00;99.90;;;;;;5002466;28;39565;-74
2023/09/11 01:53:34;;;;;;;14.43;12.90;;;21.00;99.90;;;;;;5005118;28;37948;-75
2023/09/11 01:56:00;;;;;;;15.32;13.57;;;21.00;99.90;;;;;;5004446;28;38115;-77
2023/09/11 01:58:26;;;;;;;15.18;13.55;;;20.90;99.90;;;;;;5024476;28;36397;-77
2023/09/11 02:00:52;;;;;;;16.73;14.82;;;20.90;99.90;;;;;;5008336;28;38814;-77
2023/09/11 02:03:19;;;;;;;14.77;13.07;;;20.90;99.90;;;;;;5006546;28;38270;-76
2023/09/11 02:05:45;;;;;;;15.52;13.93;;;20.80;99.90;;;;;;5008710;28;36830;-78
2023/09/11 02:08:11;;;;;;;18.73;16.77;;;20.80;99.90;;;;;;5012707;28;37428;-76
2023/09/11 02:10:37;;;;;;;16.95;15.25;;;20.80;99.90;;;;;;5005361;28;39262;-76
2023/09/11 02:13:03;;;;;;;16.30;14.43;;;20.90;99.90;;;;;;4999550;28;37199;-78
2023/09/11 02:15:29;;;;;;;19.75;16.88;;;20.90;99.90;;;;;;5001708;28;37791;-77
2023/09/11 02:17:56;;;;;;;20.77;18.45;;;20.90;99.90;;;;;;4999577;28;36331;-78
2023/09/11 02:20:22;;;;;;;20.50;18.00;;;20.90;99.90;;;;;;5002233;28;39536;-78
2023/09/11 02:22:48;;;;;;;18.70;16.83;;;20.90;99.90;;;;;;5000396;28;37480;-77
2023/09/11 02:25:14;;;;;;;19.35;17.40;;;20.90;99.90;;;;;;4998881;28;36898;-78
2023/09/11 02:27:40;;;;;;;22.00;19.80;;;20.90;99.90;;;;;;5007477;28;37008;-77
2023/09/11 02:30:07;;;;;;;20.40;16.90;;;20.90;99.90;;;;;;5004234;28;38707;-77
2023/09/11 02:32:33;;;;;;;18.40;16.42;;;20.90;99.90;;;;;;5011863;28;39078;-78
2023/09/11 02:34:59;;;;;;;27.23;20.10;;;20.90;99.90;;;;;;5000866;28;38419;-78
2023/09/11 02:37:25;;;;;;;19.75;17.58;;;20.90;99.90;;;;;;4998785;28;36270;-78
2023/09/11 02:39:51;;;;;;;22.58;20.27;;;20.90;99.90;;;;;;4998036;28;38720;-78
2023/09/11 02:42:17;;;;;;;18.38;16.48;;;20.90;99.90;;;;;;4997969;28;37330;-75
2023/09/11 02:44:43;;;;;;;19.08;17.17;;;20.90;99.90;;;;;;5000984;28;37707;-78
2023/09/11 02:47:10;;;;;;;21.08;17.60;;;20.90;99.90;;;;;;4998885;28;37237;-76
2023/09/11 02:49:36;;;;;;;24.38;19.45;;;20.90;99.90;;;;;;4996704;28;39018;-77
2023/09/11 02:52:02;;;;;;;19.92;17.48;;;20.90;99.90;;;;;;5000935;28;37122;-76
2023/09/11 02:54:28;;;;;;;23.48;21.02;;;20.90;99.90;;;;;;4997145;28;38241;-77
2023/09/11 02:56:54;;;;;;;19.00;16.98;;;20.90;99.90;;;;;;5001940;28;36192;-78
2023/09/11 02:59:20;;;;;;;17.77;15.85;;;20.90;99.90;;;;;;5000369;28;37617;-76
2023/09/11 03:01:46;;;;;;;20.40;18.17;;;21.00;99.90;;;;;;5006954;28;37291;-77
2023/09/11 03:04:12;;;;;;;16.67;15.07;;;20.90;99.90;;;;;;5003062;28;36864;-78
2023/09/11 03:06:38;;;;;;;19.77;17.13;;;20.90;99.90;;;;;;4999902;28;37535;-76
2023/09/11 03:09:07;;;;;;;19.85;16.77;;;20.90;99.90;;;;;;4998967;28;38850;-77
2023/09/11 03:11:34;;;;;;;18.10;16.20;;;20.90;99.90;;;;;;5013445;28;38125;-78
2023/09/11 03:14:00;;;;;;;16.95;15.35;;;20.90;99.90;;;;;;5007821;28;37950;-76
2023/09/11 03:16:26;;;;;;;17.95;15.68;;;20.90;99.90;;;;;;5009594;28;36394;-78
2023/09/11 03:18:53;;;;;;;23.38;19.10;;;20.90;99.90;;;;;;5021981;28;39833;-77
2023/09/11 03:21:20;;;;;;;17.45;15.70;;;20.90;99.90;;;;;;5008820;28;38208;-77
2023/09/11 03:23:46;;;;;;;17.67;15.70;;;20.90;99.90;;;;;;4999246;28;37897;-77
2023/09/11 03:26:15;;;;;;;17.52;15.48;;;20.90;99.90;;;;;;5004284;28;38249;-76
2023/09/11 03:28:47;;;;;;;17.02;15.27;;;21.00;99.90;;;;;;5002333;28;38265;-79
2023/09/11 03:31:13;;;;;;;21.42;15.50;;;20.90;99.90;;;;;;5000420;28;40022;-78
2023/09/11 03:33:39;;;;;;;19.83;16.17;;;20.90;99.90;;;;;;4995831;28;37360;-77
2023/09/11 03:36:05;;;;;;;18.70;16.52;;;20.90;99.90;;;;;;5008062;28;37506;-76
2023/09/11 03:38:31;;;;;;;21.17;18.63;;;20.90;99.90;;;;;;4996973;28;38694;-76
2023/09/11 03:40:58;;;;;;;20.02;17.25;;;20.90;99.90;;;;;;5000119;28;38875;-78
2023/09/11 03:43:24;;;;;;;22.10;16.30;;;21.00;99.90;;;;;;4995251;28;37664;-76
2023/09/11 03:45:51;;;;;;;23.55;16.15;;;21.10;99.90;;;;;;4995574;28;36513;-77
2023/09/11 03:48:17;;;;;;;21.08;16.80;;;21.10;99.90;;;;;;4996777;28;38592;-77
2023/09/11 03:50:43;;;;;;;19.20;16.30;;;21.10;99.90;;;;;;4997034;28;39861;-77
2023/09/11 03:53:09;;;;;;;19.55;16.60;;;21.20;99.90;;;;;;4998538;28;37818;-76
2023/09/11 03:55:36;;;;;;;22.80;15.82;;;21.20;99.90;;;;;;4997943;28;36903;-77
2023/09/11 03:58:02;;;;;;;21.48;15.40;;;21.20;99.90;;;;;;5000010;28;38455;-77
2023/09/11 04:00:28;;;;;;;17.38;14.10;;;21.30;99.90;;;;;;5001071;28;39181;-78
2023/09/11 04:02:54;;;;;;;17.88;15.02;;;21.30;99.90;;;;;;5020109;28;36731;-77
2023/09/11 04:05:20;;;;;;;21.95;14.57;;;21.30;99.90;;;;;;5000232;28;37518;-77
2023/09/11 04:07:47;;;;;;;23.38;14.73;;;21.30;99.90;;;;;;5009950;28;39027;-77
2023/09/11 04:10:13;;;;;;;18.77;14.95;;;21.30;99.90;;;;;;4997634;28;37487;-77
2023/09/11 04:12:39;;;;;;;16.58;13.18;;;21.20;99.90;;;;;;4996029;28;36874;-76
2023/09/11 04:15:06;;;;;;;19.88;15.63;;;21.20;99.90;;;;;;5003190;28;38042;-77
2023/09/11 04:17:32;;;;;;;17.50;14.15;;;21.20;99.90;;;;;;5008917;28;39623;-78
2023/09/11 04:19:59;;;;;;;22.33;14.00;;;21.10;99.90;;;;;;5019410;28;38131;-77
2023/09/11 04:22:25;;;;;;;18.55;13.50;;;21.10;99.90;;;;;;5011218;28;38219;-76
2023/09/11 04:24:51;;;;;;;14.00;12.70;;;21.10;99.90;;;;;;5006980;28;36324;-79
2023/09/11 04:27:18;;;;;;;17.77;13.65;;;21.00;99.90;;;;;;5007606;28;38723;-77
2023/09/11 04:29:44;;;;;;;17.08;13.63;;;21.00;99.90;;;;;;5001343;28;38197;-77
2023/09/11 04:32:12;;;;;;;14.57;12.82;;;20.90;99.90;;;;;;4997578;28;37858;-77
2023/09/11 04:34:38;;;;;;;16.58;14.02;;;20.90;99.90;;;;;;5015096;28;36835;-77
2023/09/11 04:37:04;;;;;;;18.48;14.45;;;20.80;99.90;;;;;;4997651;28;37963;-77
2023/09/11 04:39:30;;;;;;;27.95;15.77;;;20.80;99.90;;;;;;4999561;28;37490;-78
2023/09/11 04:41:56;;;;;;;19.80;15.05;;;20.80;99.90;;;;;;4996802;28;36984;-78
2023/09/11 04:44:22;;;;;;;22.60;16.40;;;20.80;99.90;;;;;;4997844;28;37592;-78
2023/09/11 04:46:48;;;;;;;17.63;14.35;;;20.80;99.90;;;;;;5000730;28;38569;-78
2023/09/11 04:49:15;;;;;;;14.57;13.00;;;20.80;99.90;;;;;;5003018;28;38558;-77
2023/09/11 04:51:41;;;;;;;14.88;13.30;;;20.70;99.90;;;;;;5005652;28;36746;-78
2023/09/11 04:54:07;;;;;;;16.40;14.80;;;20.70;99.90;;;;;;5000090;28;38956;-77
2023/09/11 04:56:33;;;;;;;18.35;14.55;;;20.70;99.90;;;;;;5021391;28;37499;-78
2023/09/11 04:58:59;;;;;;;14.50;13.05;;;20.60;99.90;;;;;;5009482;28;37542;-76
2023/09/11 05:01:26;;;;;;;16.40;13.65;;;20.60;99.90;;;;;;5002344;28;38742;-76
2023/09/11 05:03:53;;;;;;;17.73;14.48;;;20.50;99.90;;;;;;5007657;28;38178;-78
2023/09/11 05:06:19;;;;;;;21.95;16.75;;;20.50;99.90;;;;;;5016854;28;39486;-78
2023/09/11 05:08:45;;;;;;;20.38;16.02;;;20.50;99.90;;;;;;5001441;28;38518;-78
2023/09/11 05:11:11;;;;;;;16.23;14.50;;;20.50;99.90;;;;;;5004066;28;37829;-77
2023/09/11 05:13:38;;;;;;;20.20;16.73;;;20.50;99.90;;;;;;5005709;28;37155;-78
2023/09/11 05:16:04;;;;;;;22.02;16.80;;;20.50;99.90;;;;;;4997288;28;38678;-77
2023/09/11 05:18:31;;;;;;;21.40;15.43;;;20.50;99.90;;;;;;4999665;28;37828;-79
2023/09/11 05:20:57;;;;;;;20.88;17.35;;;20.50;99.90;;;;;;5001056;28;36987;-75
2023/09/11 05:23:24;;;;;;;17.38;15.18;;;20.50;99.90;;;;;;4994913;28;37136;-77
2023/09/11 05:25:50;;;;;;;18.80;15.63;;;20.50;99.90;;;;;;4997185;28;37436;-76
2023/09/11 05:28:16;;;;;;;18.83;15.65;;;20.50;99.90;;;;;;4998480;28;38453;-76
2023/09/11 05:30:42;;;;;;;18.52;15.75;;;20.50;99.90;;;;;;4999047;28;37071;-76
2023/09/11 05:33:08;;;;;;;22.23;15.77;;;20.50;99.90;;;;;;4998875;28;38102;-76
2023/09/11 05:35:34;;;;;;;18.20;15.77;;;20.50;99.90;;;;;;4993658;28;37673;-76
2023/09/11 05:38:00;;;;;;;23.40;17.17;;;20.60;99.90;;;;;;5000448;28;37402;-76
2023/09/11 05:40:26;;;;;;;18.60;15.82;;;20.60;99.90;;;;;;4997702;28;36790;-76
2023/09/11 05:42:52;;;;;;;23.88;19.45;;;20.60;99.90;;;;;;4998379;28;36682;-76
2023/09/11 05:45:18;;;;;;;22.60;20.08;;;20.60;99.90;;;;;;4999453;28;38018;-76
2023/09/11 05:47:45;;;;;;;28.30;22.55;;;20.60;99.90;;;;;;5003938;28;38974;-77
2023/09/11 05:50:11;;;;;;;28.40;23.75;;;20.60;99.90;;;;;;4995694;28;38811;-76
2023/09/11 05:52:37;;;;;;;36.63;29.88;;;20.60;99.90;;;;;;5000710;28;39020;-77
2023/09/11 05:55:04;;;;;;;43.28;30.35;;;20.60;99.90;;;;;;4996826;28;38944;-76
2023/09/11 05:57:30;;;;;;;29.88;25.92;;;20.60;99.90;;;;;;5013839;28;38050;-79
2023/09/11 05:59:56;;;;;;;34.47;27.38;;;20.70;99.90;;;;;;5001385;28;38075;-78
2023/09/11 06:02:23;;;;;;;36.60;28.73;;;20.80;99.90;;;;;;5006619;28;37589;-77
2023/09/11 06:04:49;;;;;;;32.30;27.95;;;20.80;99.90;;;;;;5009268;28;36964;-77
2023/09/11 06:07:16;;;;;;;36.70;30.70;;;20.80;99.90;;;;;;5010187;28;38590;-77
2023/09/11 06:09:42;;;;;;;36.28;31.48;;;20.90;99.90;;;;;;5023797;28;36763;-75
2023/09/11 06:12:09;;;;;;;39.33;32.40;;;20.90;99.90;;;;;;5011818;28;37453;-73
2023/09/11 06:14:37;;;;;;;49.28;37.22;;;20.90;99.90;;;;;;5004875;28;38419;-76
2023/09/11 06:17:05;;;;;;;40.63;33.60;;;20.90;99.90;;;;;;5004296;28;38041;-77
2023/09/11 06:19:31;;;;;;;41.88;34.30;;;20.90;99.90;;;;;;5003116;28;38237;-77
2023/09/11 06:21:57;;;;;;;39.60;35.17;;;20.90;99.90;;;;;;4999500;28;37952;-77
2023/09/11 06:24:23;;;;;;;45.60;35.22;;;20.90;99.90;;;;;;5004161;28;38405;-79
2023/09/11 06:27:10;;;;;;;42.78;35.10;;;20.90;99.90;;;;;;4996957;28;38579;-77
2023/09/11 06:29:36;;;;;;;42.95;34.03;;;20.90;99.90;;;;;;4994913;28;49069;-77
2023/09/11 06:32:03;;;;;;;41.58;33.63;;;20.90;99.90;;;;;;5011270;28;37287;-76
2023/09/11 06:34:30;;;;;;;44.30;35.47;;;20.90;99.90;;;;;;5012430;28;46695;-75
2023/09/11 06:36:57;;;;;;;47.30;39.03;;;20.90;99.90;;;;;;5001193;28;37071;-74
2023/09/11 06:39:24;;;;;;;43.83;35.10;;;20.90;99.90;;;;;;5005269;28;38064;-75
2023/09/11 06:41:50;;;;;;;49.95;36.45;;;21.00;99.90;;;;;;5012658;28;37245;-76
2023/09/11 06:44:16;;;;;;;45.45;37.85;;;21.00;99.90;;;;;;4990736;28;37743;-77
2023/09/11 06:46:42;;;;;;;45.53;37.63;;;21.00;99.90;;;;;;5013286;28;39240;-76
2023/09/11 06:49:08;;;;;;;50.53;40.67;;;21.00;99.90;;;;;;5004334;28;36720;-75
2023/09/11 06:51:36;;;;;;;50.08;38.63;;;21.00;99.90;;;;;;5013463;28;37500;-76
2023/09/11 06:54:03;;;;;;;48.95;39.45;;;21.00;99.90;;;;;;5014696;28;38326;-75
2023/09/11 06:56:31;;;;;;;47.15;37.97;;;21.00;99.90;;;;;;5004812;28;37441;-75
2023/09/11 06:58:57;;;;;;;56.38;42.67;;;21.00;99.90;;;;;;4999948;28;36653;-76
2023/09/11 07:01:23;;;;;;;45.75;38.28;;;21.10;99.90;;;;;;4982743;28;37540;-76
2023/09/11 07:03:50;;;;;;;51.22;41.72;;;21.20;99.90;;;;;;5002852;28;37692;-77
2023/09/11 07:06:16;;;;;;;50.00;39.03;;;21.20;99.90;;;;;;4996781;28;37722;-76
2023/09/11 07:08:42;;;;;;;50.53;40.65;;;21.30;99.90;;;;;;5005135;28;37236;-77
2023/09/11 07:11:08;;;;;;;48.58;40.90;;;21.30;99.90;;;;;;5007184;28;37535;-77
2023/09/11 07:13:34;;;;;;;49.85;39.20;;;21.30;99.90;;;;;;5003099;28;38736;-76
2023/09/11 07:16:01;;;;;;;53.03;39.40;;;21.40;99.90;;;;;;5006474;28;37096;-77
2023/09/11 07:18:28;;;;;;;49.80;39.83;;;21.50;99.90;;;;;;5007813;28;49193;-75
2023/09/11 07:20:55;;;;;;;49.40;39.45;;;21.50;99.90;;;;;;5007780;28;37432;-77
2023/09/11 07:23:25;;;;;;;47.00;37.80;;;21.50;99.90;;;;;;5007476;28;39722;-76
2023/09/11 07:25:51;;;;;;;45.05;35.53;;;21.60;99.90;;;;;;5000145;28;37656;-77
2023/09/11 07:28:17;;;;;;;45.15;38.38;;;21.70;99.90;;;;;;5011906;28;39504;-77
2023/09/11 07:30:44;;;;;;;39.60;34.80;;;21.80;99.90;;;;;;5014193;28;36561;-77
2023/09/11 07:33:11;;;;;;;49.30;39.80;;;21.90;99.90;;;;;;5000756;28;39093;-78
2023/09/11 07:35:38;;;;;;;40.47;33.08;;;21.90;99.90;;;;;;5006473;28;38768;-77
2023/09/11 07:38:06;;;;;;;42.28;32.97;;;22.00;99.90;;;;;;5000998;28;36990;-78
2023/09/11 07:40:34;;;;;;;39.97;31.60;;;22.10;99.90;;;;;;5011139;28;36187;-78
2023/09/11 07:43:00;;;;;;;36.50;30.80;;;22.10;99.90;;;;;;5013904;28;39369;-77
2023/09/11 07:45:26;;;;;;;41.40;30.17;;;22.20;99.90;;;;;;5009776;28;37193;-77
2023/09/11 07:47:54;;;;;;;36.53;28.20;;;22.20;99.90;;;;;;5007631;28;36971;-77
2023/09/11 07:50:20;;;;;;;35.40;28.05;;;22.30;99.90;;;;;;5004277;28;37328;-78
2023/09/11 07:52:46;;;;;;;30.77;24.45;;;22.40;99.90;;;;;;5006086;28;38986;-78
2023/09/11 07:55:14;;;;;;;32.33;24.50;;;22.40;99.90;;;;;;4998180;28;37042;-76
2023/09/11 07:57:40;;;;;;;28.40;24.27;;;22.50;99.90;;;;;;4991748;28;36696;-76
2023/09/11 08:00:07;;;;;;;29.08;23.77;;;22.60;99.90;;;;;;4995658;28;36756;-78
2023/09/11 08:02:33;;;;;;;27.33;22.25;;;22.60;99.90;;;;;;4997814;28;37786;-78
2023/09/11 08:05:00;;;;;;;26.35;21.80;;;22.70;99.90;;;;;;5004328;28;38390;-78
2023/09/11 08:07:26;;;;;;;25.60;21.13;;;22.80;99.90;;;;;;5000686;28;37762;-76
2023/09/11 08:09:52;;;;;;;27.55;20.45;;;22.80;99.90;;;;;;5003943;28;36426;-77
2023/09/11 08:12:19;;;;;;;26.88;20.38;;;22.90;99.90;;;;;;4996966;28;39609;-77
2023/09/11 08:14:45;;;;;;;28.25;18.02;;;22.90;99.90;;;;;;4999970;28;37053;-77
2023/09/11 08:17:12;;;;;;;25.63;17.50;;;23.00;99.90;;;;;;4997472;28;37083;-77
2023/09/11 08:19:38;;;;;;;20.83;16.63;;;23.10;99.90;;;;;;5016033;28;35843;-77
2023/09/11 08:22:05;;;;;;;21.15;14.40;;;23.20;99.90;;;;;;5002183;28;38660;-74
2023/09/11 08:24:31;;;;;;;20.70;13.50;;;23.30;99.90;;;;;;5000424;28;37360;-78
2023/09/11 08:26:57;;;;;;;16.65;11.85;;;23.40;99.90;;;;;;5010641;28;38074;-76
2023/09/11 08:29:23;;;;;;;16.17;11.45;;;23.60;99.90;;;;;;5002638;28;38440;-75
2023/09/11 08:31:49;;;;;;;16.60;11.27;;;23.80;99.90;;;;;;5002944;28;38379;-74
2023/09/11 08:34:16;;;;;;;19.60;10.50;;;24.10;99.90;;;;;;4990650;28;37643;-76
2023/09/11 08:36:42;;;;;;;17.00;9.73;;;24.40;99.90;;;;;;4997082;28;37006;-77
2023/09/11 08:39:08;;;;;;;17.23;9.60;;;24.50;99.90;;;;;;5002778;28;36636;-77
2023/09/11 08:41:35;;;;;;;13.60;7.28;;;24.60;99.90;;;;;;5003413;28;37690;-78
2023/09/11 08:44:01;;;;;;;9.57;5.78;;;24.60;99.90;;;;;;4998982;28;39083;-78
2023/09/11 08:46:31;;;;;;;7.85;6.10;;;24.70;99.90;;;;;;4996211;28;47203;-78
2023/09/11 08:49:02;;;;;;;6.13;4.68;;;24.90;99.90;;;;;;4997158;28;36995;-78
2023/09/11 08:51:36;;;;;;;9.10;5.10;;;24.90;99.90;;;;;;5008188;28;47627;-77
2023/09/11 08:54:04;;;;;;;9.13;5.43;;;24.90;99.90;;;;;;5004003;28;38406;-76
2023/09/11 08:56:31;;;;;;;8.85;5.78;;;25.00;99.90;;;;;;5007433;28;47521;-74
2023/09/11 08:58:59;;;;;;;10.38;6.00;;;24.90;99.90;;;;;;5026582;28;37620;-75
2023/09/11 09:01:26;;;;;;;9.30;5.55;;;24.80;99.90;;;;;;5006019;28;39184;-76
2023/09/11 09:03:53;;;;;;;10.95;5.55;;;24.80;99.90;;;;;;5029251;28;37534;-77
2023/09/11 09:06:19;;;;;;;10.63;5.50;;;25.00;99.90;;;;;;5010885;28;36621;-75
2023/09/11 09:08:46;;;;;;;11.43;6.07;;;25.20;99.90;;;;;;5015338;28;35292;-78
2023/09/11 09:11:13;;;;;;;11.27;5.85;;;25.30;99.90;;;;;;5015416;28;38642;-77
2023/09/11 09:13:39;;;;;;;11.18;5.85;;;25.30;99.40;;;;;;5004993;28;37984;-78
2023/09/11 09:16:05;;;;;;;9.55;5.65;;;25.40;99.90;;;;;;5020188;28;37801;-77
2023/09/11 09:18:31;;;;;;;13.43;6.57;;;25.40;99.90;;;;;;5016815;28;37691;-76
2023/09/11 09:20:57;;;;;;;8.93;6.25;;;25.40;97.80;;;;;;5011123;28;37573;-79
2023/09/11 09:23:36;;;;;;;12.70;6.72;;;25.30;94.70;;;;;;5032803;28;38127;-76
2023/09/11 09:26:07;;;;;;;11.43;6.53;;;25.30;97.40;;;;;;5000248;28;36783;-76
2023/09/11 09:28:34;;;;;;;10.18;6.00;;;25.20;99.90;;;;;;5026107;28;36327;-77
2023/09/11 09:31:01;;;;;;;8.32;6.72;;;25.20;98.20;;;;;;5014797;28;38748;-77
2023/09/11 09:33:27;;;;;;;16.27;7.07;;;25.10;99.90;;;;;;5014731;28;38525;-76
2023/09/11 09:35:53;;;;;;;12.02;6.68;;;25.10;99.90;;;;;;5020547;28;37461;-77
2023/09/11 09:38:20;;;;;;;11.48;6.63;;;25.20;99.90;;;;;;5024189;28;37368;-76
2023/09/11 09:40:49;;;;;;;11.57;7.20;;;25.50;99.90;;;;;;5007439;28;39688;-77
2023/09/11 09:43:17;;;;;;;10.05;6.00;;;25.60;99.90;;;;;;5015940;28;37418;-75
2023/09/11 09:45:44;;;;;;;9.30;7.05;;;25.70;99.50;;;;;;5029096;28;37911;-76
2023/09/11 09:48:14;;;;;;;11.18;7.30;;;25.60;92.90;;;;;;5027497;28;36990;-76
2023/09/11 09:50:46;;;;;;;10.50;7.78;;;25.50;99.20;;;;;;5015395;28;37811;-74
2023/09/11 09:53:32;;;;;;;11.60;6.95;;;25.70;99.90;;;;;;5000540;28;38526;-77
2023/09/11 09:56:04;;;;;;;18.83;8.45;;;26.00;99.90;;;;;;5012340;28;36644;-77
2023/09/11 09:58:35;;;;;;;;;;;26.00;93.10;;;;;;5028138;28;47372;-78
2023/09/11 10:01:12;;;;;;;12.82;8.88;;;26.00;94.50;;;;;;5012107;28;39255;-76
2023/09/11 10:03:39;;;;;;;14.85;8.25;;;25.90;99.90;;;;;;5013547;28;46983;-76
2023/09/11 10:06:27;;;;;;;12.80;9.10;;;25.90;99.90;;;;;;5008422;28;36486;-76
2023/09/11 10:09:08;;;;;;;13.98;9.05;;;26.10;96.90;;;;;;5024786;28;37413;-77
2023/09/11 10:11:35;;;;;;;17.60;10.43;;;26.30;96.70;;;;;;5007105;28;47046;-78
2023/09/11 10:14:03;;;;;;;18.35;11.38;;;26.30;85.90;;;;;;5010180;28;39487;-78
2023/09/11 10:16:33;;;;;;;16.70;8.43;;;26.00;91.20;;;;;;5027033;28;47246;-77
2023/09/11 10:19:01;;;;;;;12.50;8.88;;;26.30;98.40;;;;;;5012248;28;36391;-75
2023/09/11 10:21:28;;;;;;;20.02;9.95;;;26.30;99.90;;;;;;5024794;28;39533;-78
2023/09/11 10:23:55;;;;;;;21.55;11.45;;;26.50;93.50;;;;;;5008283;28;37198;-75
2023/09/11 10:26:26;;;;;;;14.38;9.40;;;26.60;80.20;;;;;;5009813;28;36575;-77
2023/09/11 10:28:55;;;;;;;11.88;9.15;;;26.50;93.60;;;;;;5014927;28;37145;-77
2023/09/11 10:31:25;;;;;;;13.77;9.20;;;26.50;99.90;;;;;;5013681;28;37773;-78
2023/09/11 10:33:57;;;;;;;19.92;10.57;;;26.40;96.50;;;;;;5008900;28;39755;-78
2023/09/11 10:36:25;;;;;;;;;;;26.40;84.80;;;;;;5015108;28;38438;-77
2023/09/11 10:38:55;;;;;;;15.55;10.00;;;26.30;92.20;;;;;;5015760;28;37591;-77
2023/09/11 10:41:22;;;;;;;15.13;9.48;;;26.30;96.10;;;;;;5008546;28;38975;-77
2023/09/11 10:43:49;;;;;;;12.15;9.23;;;26.50;94.40;;;;;;5019826;28;38438;-78
2023/09/11 10:46:21;;;;;;;12.05;10.18;;;26.70;98.50;;;;;;5018045;28;36769;-77
2023/09/11 10:48:48;;;;;;;15.15;9.80;;;26.40;85.70;;;;;;5003526;28;36713;-77
2023/09/11 10:51:15;;;;;;;17.83;8.80;;;26.20;97.00;;;;;;5005267;28;37572;-78
2023/09/11 10:53:42;;;;;;;18.15;10.80;;;26.30;99.90;;;;;;5010462;28;37909;-77
2023/09/11 10:56:09;;;;;;;13.73;9.18;;;26.10;97.00;;;;;;5005272;28;37018;-77
2023/09/11 10:58:35;;;;;;;16.23;10.50;;;26.20;99.90;;;;;;5031244;28;37304;-77
2023/09/11 11:01:04;;;;;;;12.98;10.65;;;26.20;96.80;;;;;;5012794;28;39508;-76
2023/09/11 11:03:32;;;;;;;18.25;10.88;;;26.20;99.90;;;;;;5016658;28;37591;-77
2023/09/11 11:05:59;;;;;;;17.40;10.70;;;26.10;99.90;;;;;;5014718;28;37629;-77
2023/09/11 11:08:25;;;;;;;13.15;8.27;;;26.00;99.90;;;;;;5005324;28;36578;-77
2023/09/11 11:10:56;;;;;;;15.68;9.80;;;26.30;99.90;;;;;;5003526;28;37535;-78
2023/09/11 11:13:22;;;;;;;13.10;9.32;;;26.60;99.90;;;;;;5002323;28;37345;-76
2023/09/11 11:16:08;;;;;;;16.38;12.77;;;26.70;99.80;;;;;;5017165;28;37530;-76
2023/09/11 11:18:35;;;;;;;16.48;10.40;;;26.60;91.40;;;;;;4999873;28;49005;-79
2023/09/11 11:21:04;;;;;;;15.73;10.43;;;26.50;99.30;;;;;;5007612;28;38557;-77
2023/09/11 11:23:31;;;;;;;21.38;15.23;;;26.70;99.20;;;;;;4994524;28;47995;-75
2023/09/11 11:26:05;;;;;;;20.95;14.18;;;26.50;84.00;;;;;;5005904;28;38181;-77
2023/09/11 11:28:42;;;;;;;19.88;16.92;;;26.20;96.20;;;;;;4997353;28;47294;-76
2023/09/11 11:31:12;;;;;;;21.38;15.55;;;25.70;99.90;;;;;;5003683;28;39588;-77
2023/09/11 11:33:40;;;;;;;20.88;15.15;;;25.80;99.90;;;;;;5000268;28;38288;-77
2023/09/11 11:36:08;;;;;;;20.02;15.05;;;26.00;99.90;;;;;;4994677;28;36535;-77
2023/09/11 11:38:36;;;;;;;27.85;15.75;;;25.80;99.90;;;;;;5002151;28;37683;-76
2023/09/11 11:41:03;;;;;;;20.60;15.40;;;25.50;99.90;;;;;;5003431;28;40008;-76
2023/09/11 11:43:31;;;;;;;30.63;19.60;;;25.30;99.90;;;;;;4989290;28;38834;-77
2023/09/11 11:45:57;;;;;;;27.27;17.75;;;25.20;99.90;;;;;;4994035;28;38390;-77
2023/09/11 11:48:27;;;;;;;30.13;20.25;;;25.00;99.90;;;;;;4998549;28;36786;-78
2023/09/11 11:50:54;;;;;;;30.02;20.33;;;25.00;99.90;;;;;;4997664;28;38854;-76
2023/09/11 11:53:23;;;;;;;29.67;18.67;;;25.00;99.90;;;;;;4983028;28;38937;-76
2023/09/11 11:55:51;;;;;;;28.95;20.67;;;25.00;99.90;;;;;;4993679;28;36873;-77
2023/09/11 11:58:17;;;;;;;25.45;18.48;;;24.90;99.90;;;;;;4996466;28;37560;-76
2023/09/11 12:00:58;;;;;;;32.42;20.85;;;24.80;99.90;;;;;;4998552;28;37638;-76
2023/09/11 12:03:27;;;;;;;25.55;15.45;;;24.80;99.90;;;;;;5013794;28;38811;-77
2023/09/11 12:05:53;;;;;;;25.73;18.63;;;24.60;99.90;;;;;;4996964;28;38591;-77
2023/09/11 12:08:21;;;;;;;21.15;14.70;;;24.70;99.90;;;;;;5016261;28;37761;-76
2023/09/11 12:10:48;;;;;;;22.00;15.18;;;24.80;99.90;;;;;;5000069;28;37947;-77
2023/09/11 12:13:17;;;;;;;19.30;15.98;;;24.80;99.90;;;;;;5004264;28;37465;-76
2023/09/11 12:15:50;;;;;;;21.48;14.93;;;24.60;99.90;;;;;;5000714;28;37861;-77
2023/09/11 12:18:17;;;;;;;19.08;12.80;;;24.60;99.90;;;;;;5002503;28;36688;-77
2023/09/11 12:20:54;;;;;;;19.13;15.05;;;24.40;99.90;;;;;;4998899;28;38588;-77
2023/09/11 12:23:20;;;;;;;21.55;15.50;;;24.40;96.40;;;;;;4995990;28;39010;-77
2023/09/11 12:25:48;;;;;;;18.25;13.98;;;24.30;99.90;;;;;;5006097;28;38453;-77
2023/09/11 12:28:14;;;;;;;22.25;14.02;;;24.20;99.90;;;;;;4997782;28;37184;-76
2023/09/11 12:30:45;;;;;;;25.75;17.35;;;24.40;99.90;;;;;;4999979;28;39461;-77
2023/09/11 12:33:16;;;;;;;22.35;15.93;;;24.40;99.90;;;;;;4993828;28;37280;-77